Shumway, Illinois
Current Conditions -  °F | °C
As of 6:15 AM on Sunday 23 Nov 2014 (Local Time) from K1H2 Reporting Station
Clear Clear  
Wind Chill: 45°   Ceiling: Unl
Heat Index: 49°   Visibility: NA
Dew Point: 40°   Wind: 9mph
Humidity: 70%   Direction: 140°SE
Pressure: 29.82"   Gusts: NA
Location:  39.19°N, 88.65°W
Report Text: K1H2 231215Z AUTO 14008KT CLR 10/04 A2982 RMK AO2 T00950042 PWINO
Loading
Personal Weather Stations






























Interactive Weather Map New forecast layout! Learn more

10-Day Weather Forecast

Advertisements
Track Severe Weather on mobile